sensor_id;sensor_type;location;lat;lon;timestamp;pressure;altitude;pressure_sealevel;temperature;humidity
73085;BME280;62974;49.460;10.892;2022-09-24T00:01:46;97611.50;;;10.57;76.20
73085;BME280;62974;49.460;10.892;2022-09-24T00:04:15;97611.31;;;10.59;76.02
73085;BME280;62974;49.460;10.892;2022-09-24T00:06:44;97608.00;;;10.57;76.04
73085;BME280;62974;49.460;10.892;2022-09-24T00:09:13;97606.34;;;10.56;76.07
73085;BME280;62974;49.460;10.892;2022-09-24T00:11:41;97599.94;;;10.57;76.59
73085;BME280;62974;49.460;10.892;2022-09-24T00:14:10;97599.09;;;10.56;76.25
73085;BME280;62974;49.460;10.892;2022-09-24T00:16:39;97590.44;;;10.54;76.30
73085;BME280;62974;49.460;10.892;2022-09-24T00:19:08;97595.59;;;10.56;76.53
73085;BME280;62974;49.460;10.892;2022-09-24T00:21:38;97597.44;;;10.55;76.46
73085;BME280;62974;49.460;10.892;2022-09-24T00:24:07;97600.34;;;10.54;76.42
73085;BME280;62974;49.460;10.892;2022-09-24T00:26:35;97600.56;;;10.52;76.29
73085;BME280;62974;49.460;10.892;2022-09-24T00:29:19;97599.53;;;10.53;76.14
73085;BME280;62974;49.460;10.892;2022-09-24T00:31:49;97597.25;;;10.50;76.21
73085;BME280;62974;49.460;10.892;2022-09-24T00:34:17;97594.56;;;10.50;76.83
73085;BME280;62974;49.460;10.892;2022-09-24T00:36:46;97588.78;;;10.47;76.32
73085;BME280;62974;49.460;10.892;2022-09-24T00:39:14;97592.09;;;10.49;76.64
73085;BME280;62974;49.460;10.892;2022-09-24T00:41:42;97590.41;;;10.48;76.31
73085;BME280;62974;49.460;10.892;2022-09-24T00:44:41;97584.84;;;10.49;76.66
73085;BME280;62974;49.460;10.892;2022-09-24T00:47:13;97590.22;;;10.49;76.73
73085;BME280;62974;49.460;10.892;2022-09-24T00:49:43;97593.09;;;10.48;76.39
73085;BME280;62974;49.460;10.892;2022-09-24T00:52:14;97586.72;;;10.49;77.00
73085;BME280;62974;49.460;10.892;2022-09-24T00:54:43;97585.28;;;10.46;76.74
73085;BME280;62974;49.460;10.892;2022-09-24T00:57:11;97585.06;;;10.48;76.76
73085;BME280;62974;49.460;10.892;2022-09-24T00:59:40;97581.75;;;10.46;76.64
73085;BME280;62974;49.460;10.892;2022-09-24T01:02:08;97576.38;;;10.46;76.84
73085;BME280;62974;49.460;10.892;2022-09-24T01:04:36;97583.63;;;10.45;77.06
73085;BME280;62974;49.460;10.892;2022-09-24T01:07:03;97573.47;;;10.47;76.94
73085;BME280;62974;49.460;10.892;2022-09-24T01:09:33;97571.22;;;10.44;76.76
73085;BME280;62974;49.460;10.892;2022-09-24T01:12:04;97573.72;;;10.46;77.11
73085;BME280;62974;49.460;10.892;2022-09-24T01:14:58;97564.63;;;10.47;77.26
73085;BME280;62974;49.460;10.892;2022-09-24T01:17:36;97575.38;;;10.47;77.18
73085;BME280;62974;49.460;10.892;2022-09-24T01:20:43;97565.44;;;10.41;77.26
73085;BME280;62974;49.460;10.892;2022-09-24T01:23:45;97557.78;;;10.38;76.85
73085;BME280;62974;49.460;10.892;2022-09-24T01:26:32;97549.53;;;10.39;77.42
73085;BME280;62974;49.460;10.892;2022-09-24T01:29:24;97546.66;;;10.41;77.14
73085;BME280;62974;49.460;10.892;2022-09-24T01:31:58;97553.88;;;10.40;77.14
73085;BME280;62974;49.460;10.892;2022-09-24T01:34:35;97538.59;;;10.41;77.59
73085;BME280;62974;49.460;10.892;2022-09-24T01:37:04;97543.53;;;10.37;77.31
73085;BME280;62974;49.460;10.892;2022-09-24T01:39:34;97534.66;;;10.36;77.41
73085;BME280;62974;49.460;10.892;2022-09-24T01:42:04;97531.97;;;10.36;77.72
73085;BME280;62974;49.460;10.892;2022-09-24T01:44:35;97517.53;;;10.38;77.48
73085;BME280;62974;49.460;10.892;2022-09-24T01:47:04;97516.09;;;10.35;77.79
73085;BME280;62974;49.460;10.892;2022-09-24T01:49:32;97505.13;;;10.36;77.69
73085;BME280;62974;49.460;10.892;2022-09-24T01:52:02;97506.38;;;10.34;77.64
73085;BME280;62974;49.460;10.892;2022-09-24T01:54:34;97499.56;;;10.31;77.44
73085;BME280;62974;49.460;10.892;2022-09-24T01:57:06;97502.25;;;10.31;77.24
73085;BME280;62974;49.460;10.892;2022-09-24T01:59:41;97503.06;;;10.32;77.56
73085;BME280;62974;49.460;10.892;2022-09-24T02:02:15;97507.41;;;10.33;77.85
73085;BME280;62974;49.460;10.892;2022-09-24T02:04:46;97498.53;;;10.32;78.03
73085;BME280;62974;49.460;10.892;2022-09-24T02:07:23;97493.16;;;10.32;77.76
73085;BME280;62974;49.460;10.892;2022-09-24T02:09:52;97487.78;;;10.32;77.34
73085;BME280;62974;49.460;10.892;2022-09-24T02:12:25;97489.47;;;10.33;77.31
73085;BME280;62974;49.460;10.892;2022-09-24T02:15:00;97478.31;;;10.30;77.76
73085;BME280;62974;49.460;10.892;2022-09-24T02:17:32;97483.03;;;10.28;77.89
73085;BME280;62974;49.460;10.892;2022-09-24T02:20:04;97480.59;;;10.26;77.97
73085;BME280;62974;49.460;10.892;2022-09-24T02:22:32;97477.91;;;10.26;77.75
73085;BME280;62974;49.460;10.892;2022-09-24T02:25:00;97488.84;;;10.25;78.10
73085;BME280;62974;49.460;10.892;2022-09-24T02:27:30;97489.66;;;10.25;77.91
73085;BME280;62974;49.460;10.892;2022-09-24T02:29:59;97489.03;;;10.30;78.01
73085;BME280;62974;49.460;10.892;2022-09-24T02:32:29;97491.09;;;10.28;77.63
73085;BME280;62974;49.460;10.892;2022-09-24T02:35:01;97486.78;;;10.27;77.91
73085;BME280;62974;49.460;10.892;2022-09-24T02:37:34;97480.78;;;10.25;78.32
73085;BME280;62974;49.460;10.892;2022-09-24T02:40:02;97479.94;;;10.24;78.12
73085;BME280;62974;49.460;10.892;2022-09-24T02:42:31;97481.81;;;10.24;77.98
73085;BME280;62974;49.460;10.892;2022-09-24T02:45:00;97477.25;;;10.24;78.15
73085;BME280;62974;49.460;10.892;2022-09-24T02:47:29;97481.63;;;10.25;78.50
73085;BME280;62974;49.460;10.892;2022-09-24T02:49:57;97472.72;;;10.25;77.86
73085;BME280;62974;49.460;10.892;2022-09-24T02:52:25;97473.97;;;10.22;77.91
73085;BME280;62974;49.460;10.892;2022-09-24T02:54:53;97472.94;;;10.23;78.23
73085;BME280;62974;49.460;10.892;2022-09-24T02:57:21;97468.63;;;10.22;78.27
73085;BME280;62974;49.460;10.892;2022-09-24T02:59:48;97468.19;;;10.19;78.07
73085;BME280;62974;49.460;10.892;2022-09-24T03:02:17;97463.25;;;10.22;78.37
73085;BME280;62974;49.460;10.892;2022-09-24T03:04:45;97463.44;;;10.21;78.30
73085;BME280;62974;49.460;10.892;2022-09-24T03:07:12;97466.94;;;10.21;78.32
73085;BME280;62974;49.460;10.892;2022-09-24T03:09:40;97472.13;;;10.23;78.18
73085;BME280;62974;49.460;10.892;2022-09-24T03:12:08;97466.75;;;10.23;78.09
73085;BME280;62974;49.460;10.892;2022-09-24T03:14:36;97467.16;;;10.26;78.75
73085;BME280;62974;49.460;10.892;2022-09-24T03:17:03;97466.13;;;10.27;78.68
73085;BME280;62974;49.460;10.892;2022-09-24T03:19:32;97465.09;;;10.22;78.37
73085;BME280;62974;49.460;10.892;2022-09-24T03:22:00;97460.75;;;10.21;78.29
73085;BME280;62974;49.460;10.892;2022-09-24T03:24:27;97458.69;;;10.16;78.42
73085;BME280;62974;49.460;10.892;2022-09-24T03:26:55;97463.63;;;10.19;79.33
73085;BME280;62974;49.460;10.892;2022-09-24T03:29:22;97459.09;;;10.20;78.56
73085;BME280;62974;49.460;10.892;2022-09-24T03:32:04;97457.88;;;10.22;78.75
73085;BME280;62974;49.460;10.892;2022-09-24T03:34:33;97459.94;;;10.20;78.76
73085;BME280;62974;49.460;10.892;2022-09-24T03:37:00;97458.06;;;10.21;78.98
73085;BME280;62974;49.460;10.892;2022-09-24T03:39:28;97454.78;;;10.19;78.64
73085;BME280;62974;49.460;10.892;2022-09-24T03:41:55;97458.50;;;10.18;78.69
73085;BME280;62974;49.460;10.892;2022-09-24T03:44:23;97460.94;;;10.19;79.02
73085;BME280;62974;49.460;10.892;2022-09-24T03:46:51;97446.75;;;10.19;78.88
73085;BME280;62974;49.460;10.892;2022-09-24T03:49:18;97450.44;;;10.18;79.08
73085;BME280;62974;49.460;10.892;2022-09-24T03:51:47;97456.84;;;10.17;78.78
73085;BME280;62974;49.460;10.892;2022-09-24T03:54:15;97452.09;;;10.19;78.31
73085;BME280;62974;49.460;10.892;2022-09-24T03:56:43;97449.63;;;10.17;78.53
73085;BME280;62974;49.460;10.892;2022-09-24T03:59:10;97453.97;;;10.18;78.46
73085;BME280;62974;49.460;10.892;2022-09-24T04:01:38;97456.41;;;10.20;78.77
73085;BME280;62974;49.460;10.892;2022-09-24T04:04:05;97456.41;;;10.20;79.22
73085;BME280;62974;49.460;10.892;2022-09-24T04:06:33;97453.97;;;10.18;79.28
73085;BME280;62974;49.460;10.892;2022-09-24T04:09:02;97450.00;;;10.14;78.54
73085;BME280;62974;49.460;10.892;2022-09-24T04:11:29;97453.31;;;10.16;79.27
73085;BME280;62974;49.460;10.892;2022-09-24T04:14:00;97457.84;;;10.16;79.15
73085;BME280;62974;49.460;10.892;2022-09-24T04:16:28;97459.53;;;10.17;78.64
73085;BME280;62974;49.460;10.892;2022-09-24T04:18:55;97458.06;;;10.14;78.85
73085;BME280;62974;49.460;10.892;2022-09-24T04:21:23;97458.06;;;10.14;79.14
73085;BME280;62974;49.460;10.892;2022-09-24T04:23:51;97444.63;;;10.14;79.17
73085;BME280;62974;49.460;10.892;2022-09-24T04:26:19;97441.94;;;10.14;79.07
73085;BME280;62974;49.460;10.892;2022-09-24T04:28:47;97441.31;;;10.12;79.14
73085;BME280;62974;49.460;10.892;2022-09-24T04:31:15;97439.25;;;10.08;79.24
73085;BME280;62974;49.460;10.892;2022-09-24T04:33:43;97433.88;;;10.08;79.11
73085;BME280;62974;49.460;10.892;2022-09-24T04:36:10;97436.97;;;10.11;78.51
73085;BME280;62974;49.460;10.892;2022-09-24T04:38:38;97441.09;;;10.07;78.59
73085;BME280;62974;49.460;10.892;2022-09-24T04:41:07;97425.44;;;10.04;78.73
73085;BME280;62974;49.460;10.892;2022-09-24T04:43:36;97427.28;;;10.04;78.67
73085;BME280;62974;49.460;10.892;2022-09-24T04:46:04;97428.34;;;10.03;79.09
73085;BME280;62974;49.460;10.892;2022-09-24T04:48:32;97430.19;;;10.02;79.05
73085;BME280;62974;49.460;10.892;2022-09-24T04:51:00;97433.28;;;9.99;78.65
73085;BME280;62974;49.460;10.892;2022-09-24T04:53:28;97434.50;;;9.97;78.43
73085;BME280;62974;49.460;10.892;2022-09-24T04:55:56;97430.59;;;9.93;78.69
73085;BME280;62974;49.460;10.892;2022-09-24T04:58:24;97430.16;;;9.96;78.44
73085;BME280;62974;49.460;10.892;2022-09-24T05:00:53;97433.06;;;9.94;78.31
73085;BME280;62974;49.460;10.892;2022-09-24T05:03:21;97437.41;;;9.95;78.76
73085;BME280;62974;49.460;10.892;2022-09-24T05:05:48;97431.41;;;9.93;78.12
73085;BME280;62974;49.460;10.892;2022-09-24T05:08:16;97434.09;;;9.93;78.44
73085;BME280;62974;49.460;10.892;2022-09-24T05:10:43;97438.84;;;9.91;78.70
73085;BME280;62974;49.460;10.892;2022-09-24T05:13:11;97437.19;;;9.90;78.31
73085;BME280;62974;49.460;10.892;2022-09-24T05:15:38;97436.97;;;9.91;78.60
73085;BME280;62974;49.460;10.892;2022-09-24T05:18:10;97430.59;;;9.86;78.33
73085;BME280;62974;49.460;10.892;2022-09-24T05:20:37;97427.69;;;9.87;78.61
73085;BME280;62974;49.460;10.892;2022-09-24T05:23:05;97426.66;;;9.88;78.84
73085;BME280;62974;49.460;10.892;2022-09-24T05:25:32;97427.50;;;9.89;78.25
73085;BME280;62974;49.460;10.892;2022-09-24T05:28:20;97432.03;;;9.88;78.00
73085;BME280;62974;49.460;10.892;2022-09-24T05:30:47;97433.47;;;9.84;78.49
73085;BME280;62974;49.460;10.892;2022-09-24T05:33:16;97437.38;;;9.88;78.05
73085;BME280;62974;49.460;10.892;2022-09-24T05:35:44;97443.16;;;9.85;78.37
73085;BME280;62974;49.460;10.892;2022-09-24T05:38:11;97447.50;;;9.86;78.20
73085;BME280;62974;49.460;10.892;2022-09-24T05:40:39;97437.81;;;9.85;78.51
73085;BME280;62974;49.460;10.892;2022-09-24T05:43:16;97446.69;;;9.86;78.38
73085;BME280;62974;49.460;10.892;2022-09-24T05:45:45;97432.63;;;9.84;78.64
73085;BME280;62974;49.460;10.892;2022-09-24T05:48:13;97435.72;;;9.87;78.31
73085;BME280;62974;49.460;10.892;2022-09-24T05:50:41;97439.25;;;9.88;78.04
73085;BME280;62974;49.460;10.892;2022-09-24T05:53:09;97438.22;;;9.89;78.20
73085;BME280;62974;49.460;10.892;2022-09-24T05:55:37;97433.03;;;9.87;77.93
73085;BME280;62974;49.460;10.892;2022-09-24T05:58:06;97433.03;;;9.87;78.77
73085;BME280;62974;49.460;10.892;2022-09-24T06:00:34;97443.59;;;9.89;78.86
73085;BME280;62974;49.460;10.892;2022-09-24T06:03:03;97429.34;;;9.88;78.42
73085;BME280;62974;49.460;10.892;2022-09-24T06:05:33;97429.34;;;9.88;78.88
73085;BME280;62974;49.460;10.892;2022-09-24T06:08:03;97432.44;;;9.85;78.39
73085;BME280;62974;49.460;10.892;2022-09-24T06:10:31;97435.13;;;9.85;78.71
73085;BME280;62974;49.460;10.892;2022-09-24T06:12:58;97428.50;;;9.88;79.04
73085;BME280;62974;49.460;10.892;2022-09-24T06:15:26;97438.41;;;9.87;78.93
73085;BME280;62974;49.460;10.892;2022-09-24T06:17:54;97438.41;;;9.87;78.82
73085;BME280;62974;49.460;10.892;2022-09-24T06:20:22;97442.97;;;9.87;78.88
73085;BME280;62974;49.460;10.892;2022-09-24T06:22:49;97441.50;;;9.84;78.54
73085;BME280;62974;49.460;10.892;2022-09-24T06:25:18;97441.09;;;9.81;78.67
73085;BME280;62974;49.460;10.892;2022-09-24T06:27:52;97440.47;;;9.85;78.63
73085;BME280;62974;49.460;10.892;2022-09-24T06:30:21;97429.75;;;9.85;78.61
73085;BME280;62974;49.460;10.892;2022-09-24T06:32:48;97442.97;;;9.87;78.54
73085;BME280;62974;49.460;10.892;2022-09-24T06:35:16;97447.50;;;9.86;78.62
73085;BME280;62974;49.460;10.892;2022-09-24T06:37:43;97462.53;;;9.87;78.78
73085;BME280;62974;49.460;10.892;2022-09-24T06:40:11;97452.88;;;9.86;78.70
73085;BME280;62974;49.460;10.892;2022-09-24T06:42:40;97467.13;;;9.87;78.74
73085;BME280;62974;49.460;10.892;2022-09-24T06:45:08;97469.78;;;9.87;79.15
73085;BME280;62974;49.460;10.892;2022-09-24T06:47:36;97460.69;;;9.88;79.53
73085;BME280;62974;49.460;10.892;2022-09-24T06:50:05;97462.34;;;9.89;79.96
73085;BME280;62974;49.460;10.892;2022-09-24T06:52:33;97453.91;;;9.85;79.56
73085;BME280;62974;49.460;10.892;2022-09-24T06:55:00;97459.25;;;9.85;80.30
73085;BME280;62974;49.460;10.892;2022-09-24T06:57:28;97460.72;;;9.95;79.58
73085;BME280;62974;49.460;10.892;2022-09-24T06:59:56;97456.19;;;10.02;79.77
73085;BME280;62974;49.460;10.892;2022-09-24T07:02:24;97459.91;;;9.94;80.35
73085;BME280;62974;49.460;10.892;2022-09-24T07:04:52;97457.63;;;9.98;80.59
73085;BME280;62974;49.460;10.892;2022-09-24T07:07:19;97451.44;;;9.97;81.23
73085;BME280;62974;49.460;10.892;2022-09-24T07:09:59;97452.06;;;10.06;82.13
73085;BME280;62974;49.460;10.892;2022-09-24T07:12:28;97446.47;;;10.07;83.15
73085;BME280;62974;49.460;10.892;2022-09-24T07:14:57;97452.50;;;10.16;85.24
73085;BME280;62974;49.460;10.892;2022-09-24T07:17:26;97457.03;;;10.15;83.29
73085;BME280;62974;49.460;10.892;2022-09-24T07:19:59;97454.56;;;10.20;85.94
73085;BME280;62974;49.460;10.892;2022-09-24T07:22:27;97456.81;;;10.23;84.48
73085;BME280;62974;49.460;10.892;2022-09-24T07:24:55;97457.47;;;10.25;83.68
73085;BME280;62974;49.460;10.892;2022-09-24T07:27:22;97456.44;;;10.26;82.58
73085;BME280;62974;49.460;10.892;2022-09-24T07:29:50;97456.84;;;10.30;83.38
73085;BME280;62974;49.460;10.892;2022-09-24T07:32:19;97462.63;;;10.33;82.62
73085;BME280;62974;49.460;10.892;2022-09-24T07:34:54;97462.63;;;10.33;84.41
73085;BME280;62974;49.460;10.892;2022-09-24T07:37:21;97462.81;;;10.32;83.56
73085;BME280;62974;49.460;10.892;2022-09-24T07:39:49;97470.06;;;10.38;85.62
73085;BME280;62974;49.460;10.892;2022-09-24T07:42:17;97465.50;;;10.32;83.84
73085;BME280;62974;49.460;10.892;2022-09-24T07:44:44;97462.19;;;10.36;83.02
73085;BME280;62974;49.460;10.892;2022-09-24T07:47:14;97470.88;;;10.39;83.35
73085;BME280;62974;49.460;10.892;2022-09-24T07:49:43;97478.72;;;10.47;85.30
73085;BME280;62974;49.460;10.892;2022-09-24T07:52:10;97471.06;;;10.50;85.94
73085;BME280;62974;49.460;10.892;2022-09-24T07:54:38;97474.38;;;10.52;84.51
73085;BME280;62974;49.460;10.892;2022-09-24T07:57:09;97475.59;;;10.56;84.28
73085;BME280;62974;49.460;10.892;2022-09-24T07:59:39;97478.91;;;10.65;83.52
73085;BME280;62974;49.460;10.892;2022-09-24T08:02:14;97483.22;;;10.72;84.67
73085;BME280;62974;49.460;10.892;2022-09-24T08:04:44;97481.34;;;10.79;84.80
73085;BME280;62974;49.460;10.892;2022-09-24T08:07:12;97477.22;;;10.90;85.72
73085;BME280;62974;49.460;10.892;2022-09-24T08:09:39;97479.66;;;10.92;85.48
73085;BME280;62974;49.460;10.892;2022-09-24T08:12:07;97469.13;;;10.97;86.47
73085;BME280;62974;49.460;10.892;2022-09-24T08:14:36;97473.91;;;10.95;85.40
73085;BME280;62974;49.460;10.892;2022-09-24T08:17:03;97465.59;;;10.96;84.99
73085;BME280;62974;49.460;10.892;2022-09-24T08:19:31;97478.84;;;10.98;84.46
73085;BME280;62974;49.460;10.892;2022-09-24T08:22:01;97480.44;;;11.12;84.54
73085;BME280;62974;49.460;10.892;2022-09-24T08:24:30;97472.72;;;11.28;85.73
73085;BME280;62974;49.460;10.892;2022-09-24T08:26:58;97472.13;;;11.20;84.79
73085;BME280;62974;49.460;10.892;2022-09-24T08:29:25;97469.03;;;11.23;85.80
73085;BME280;62974;49.460;10.892;2022-09-24T08:31:53;97472.53;;;11.30;85.13
73085;BME280;62974;49.460;10.892;2022-09-24T08:34:20;97478.75;;;11.30;85.48
73085;BME280;62974;49.460;10.892;2022-09-24T08:36:48;97470.44;;;11.32;85.65
73085;BME280;62974;49.460;10.892;2022-09-24T08:39:17;97469.41;;;11.33;82.72
73085;BME280;62974;49.460;10.892;2022-09-24T08:41:53;97471.81;;;11.48;84.68
73085;BME280;62974;49.460;10.892;2022-09-24T08:44:26;97471.38;;;11.51;83.27
73085;BME280;62974;49.460;10.892;2022-09-24T08:47:18;97466.31;;;11.81;85.21
73085;BME280;62974;49.460;10.892;2022-09-24T08:49:55;97467.25;;;11.93;85.24
73085;BME280;62974;49.460;10.892;2022-09-24T08:52:35;97464.91;;;11.71;84.17
73085;BME280;62974;49.460;10.892;2022-09-24T08:55:07;97465.56;;;11.60;84.91
73085;BME280;62974;49.460;10.892;2022-09-24T08:57:43;97470.88;;;11.67;83.97
73085;BME280;62974;49.460;10.892;2022-09-24T09:00:16;97476.06;;;11.68;84.54
73085;BME280;62974;49.460;10.892;2022-09-24T09:02:51;97486.53;;;11.90;84.68
73085;BME280;62974;49.460;10.892;2022-09-24T09:05:26;97486.16;;;12.11;84.55
73085;BME280;62974;49.460;10.892;2022-09-24T09:08:11;97486.78;;;12.13;84.26
73085;BME280;62974;49.460;10.892;2022-09-24T09:11:03;97489.16;;;12.28;85.54
73085;BME280;62974;49.460;10.892;2022-09-24T09:13:35;97490.75;;;12.35;84.23
73085;BME280;62974;49.460;10.892;2022-09-24T09:16:16;97491.13;;;12.39;84.63
73085;BME280;62974;49.460;10.892;2022-09-24T09:18:49;97484.16;;;12.31;83.34
73085;BME280;62974;49.460;10.892;2022-09-24T09:21:23;97494.34;;;12.29;83.61
73085;BME280;62974;49.460;10.892;2022-09-24T09:23:55;97488.19;;;12.22;83.58
73085;BME280;62974;49.460;10.892;2022-09-24T09:26:24;97491.97;;;12.39;82.29
73085;BME280;62974;49.460;10.892;2022-09-24T09:28:55;97488.78;;;12.24;82.94
73085;BME280;62974;49.460;10.892;2022-09-24T09:31:32;97494.38;;;12.47;83.37
73085;BME280;62974;49.460;10.892;2022-09-24T09:34:28;97489.38;;;12.76;82.10
73085;BME280;62974;49.460;10.892;2022-09-24T09:37:10;97490.09;;;12.64;83.09
73085;BME280;62974;49.460;10.892;2022-09-24T09:39:45;97490.91;;;12.90;83.79
73085;BME280;62974;49.460;10.892;2022-09-24T09:42:26;97488.88;;;12.85;82.71
73085;BME280;62974;49.460;10.892;2022-09-24T09:44:55;97496.38;;;13.01;83.26
73085;BME280;62974;49.460;10.892;2022-09-24T09:47:30;97502.31;;;13.10;82.63
73085;BME280;62974;49.460;10.892;2022-09-24T09:50:14;97497.88;;;12.97;82.66
73085;BME280;62974;49.460;10.892;2022-09-24T09:52:45;97497.03;;;12.97;83.11
73085;BME280;62974;49.460;10.892;2022-09-24T09:55:21;97494.66;;;13.07;83.44
73085;BME280;62974;49.460;10.892;2022-09-24T09:57:51;97491.63;;;13.22;82.63
73085;BME280;62974;49.460;10.892;2022-09-24T10:00:27;97491.69;;;13.15;82.27
73085;BME280;62974;49.460;10.892;2022-09-24T10:02:59;97494.91;;;13.24;83.57
73085;BME280;62974;49.460;10.892;2022-09-24T10:05:29;97489.97;;;13.21;81.18
73085;BME280;62974;49.460;10.892;2022-09-24T10:07:57;97488.41;;;13.13;81.18
73085;BME280;62974;49.460;10.892;2022-09-24T10:10:25;97481.53;;;12.92;81.01
73085;BME280;62974;49.460;10.892;2022-09-24T10:13:05;97486.34;;;13.08;81.04
73085;BME280;62974;49.460;10.892;2022-09-24T10:15:38;97484.63;;;13.14;80.37
73085;BME280;62974;49.460;10.892;2022-09-24T10:18:12;97480.03;;;13.21;80.63
73085;BME280;62974;49.460;10.892;2022-09-24T10:20:45;97472.97;;;13.20;81.05
73085;BME280;62974;49.460;10.892;2022-09-24T10:23:16;97475.13;;;13.11;82.27
73085;BME280;62974;49.460;10.892;2022-09-24T10:25:49;97480.38;;;13.25;82.70
73085;BME280;62974;49.460;10.892;2022-09-24T10:28:19;97468.47;;;13.32;82.30
73085;BME280;62974;49.460;10.892;2022-09-24T10:31:06;97476.00;;;13.42;82.10
73085;BME280;62974;49.460;10.892;2022-09-24T10:33:38;97479.22;;;13.50;81.72
73085;BME280;62974;49.460;10.892;2022-09-24T10:36:13;97473.94;;;13.44;81.54
73085;BME280;62974;49.460;10.892;2022-09-24T10:38:40;97472.44;;;13.48;81.82
73085;BME280;62974;49.460;10.892;2022-09-24T10:41:23;97478.72;;;13.42;82.42
73085;BME280;62974;49.460;10.892;2022-09-24T10:43:54;97469.63;;;13.54;82.64
73085;BME280;62974;49.460;10.892;2022-09-24T10:46:39;97481.16;;;13.61;82.53
73085;BME280;62974;49.460;10.892;2022-09-24T10:49:16;97475.28;;;13.53;82.00
73085;BME280;62974;49.460;10.892;2022-09-24T10:51:53;97479.00;;;13.52;82.05
73085;BME280;62974;49.460;10.892;2022-09-24T10:54:41;97479.59;;;13.54;81.80
73085;BME280;62974;49.460;10.892;2022-09-24T10:57:23;97472.13;;;13.56;81.45
73085;BME280;62974;49.460;10.892;2022-09-24T11:00:00;97471.19;;;13.62;81.65
73085;BME280;62974;49.460;10.892;2022-09-24T11:02:47;97477.41;;;13.62;81.55
73085;BME280;62974;49.460;10.892;2022-09-24T11:05:20;97476.59;;;13.62;80.64
73085;BME280;62974;49.460;10.892;2022-09-24T11:07:57;97477.47;;;13.74;80.66
73085;BME280;62974;49.460;10.892;2022-09-24T11:10:46;97471.16;;;13.80;79.92
73085;BME280;62974;49.460;10.892;2022-09-24T11:13:24;97469.38;;;13.74;79.17
73085;BME280;62974;49.460;10.892;2022-09-24T11:16:08;97475.63;;;13.86;78.11
73085;BME280;62974;49.460;10.892;2022-09-24T11:18:49;97478.34;;;13.86;78.54
73085;BME280;62974;49.460;10.892;2022-09-24T11:21:28;97471.38;;;13.79;78.43
73085;BME280;62974;49.460;10.892;2022-09-24T11:24:17;97467.53;;;13.86;79.39
73085;BME280;62974;49.460;10.892;2022-09-24T11:26:59;97466.41;;;14.05;78.58
73085;BME280;62974;49.460;10.892;2022-09-24T11:29:40;97459.28;;;14.11;78.88
73085;BME280;62974;49.460;10.892;2022-09-24T11:32:29;97465.88;;;14.15;78.73
73085;BME280;62974;49.460;10.892;2022-09-24T11:35:14;97465.06;;;14.26;78.06
73085;BME280;62974;49.460;10.892;2022-09-24T11:37:54;97474.00;;;14.27;77.73
73085;BME280;62974;49.460;10.892;2022-09-24T11:40:44;97463.50;;;14.48;77.61
73085;BME280;62974;49.460;10.892;2022-09-24T11:43:34;97466.56;;;14.40;77.42
73085;BME280;62974;49.460;10.892;2022-09-24T11:46:16;97460.53;;;14.38;77.74
73085;BME280;62974;49.460;10.892;2022-09-24T11:49:11;97462.34;;;14.56;77.81
73085;BME280;62974;49.460;10.892;2022-09-24T11:51:51;97461.75;;;14.66;76.97
73085;BME280;62974;49.460;10.892;2022-09-24T11:54:25;97456.09;;;14.44;77.80
73085;BME280;62974;49.460;10.892;2022-09-24T11:56:59;97460.47;;;14.56;77.25
73085;BME280;62974;49.460;10.892;2022-09-24T11:59:37;97459.63;;;14.56;76.79
73085;BME280;62974;49.460;10.892;2022-09-24T12:02:13;97461.59;;;14.37;77.16
73085;BME280;62974;49.460;10.892;2022-09-24T12:04:50;97466.09;;;14.55;77.64
73085;BME280;62974;49.460;10.892;2022-09-24T12:07:24;97463.81;;;14.29;77.76
73085;BME280;62974;49.460;10.892;2022-09-24T12:09:57;97465.13;;;14.49;78.08
73085;BME280;62974;49.460;10.892;2022-09-24T12:12:29;97463.03;;;14.51;77.24
73085;BME280;62974;49.460;10.892;2022-09-24T12:15:03;97461.50;;;14.55;76.66
73085;BME280;62974;49.460;10.892;2022-09-24T12:17:35;97454.22;;;14.79;74.60
73085;BME280;62974;49.460;10.892;2022-09-24T12:20:15;97443.75;;;14.83;75.46
73085;BME280;62974;49.460;10.892;2022-09-24T12:22:46;97446.69;;;14.93;74.81
73085;BME280;62974;49.460;10.892;2022-09-24T12:25:15;97454.34;;;14.96;73.88
73085;BME280;62974;49.460;10.892;2022-09-24T12:27:43;97450.13;;;14.88;73.13
73085;BME280;62974;49.460;10.892;2022-09-24T12:30:27;97450.00;;;14.83;75.15
73085;BME280;62974;49.460;10.892;2022-09-24T12:33:21;97445.50;;;14.89;77.02
73085;BME280;62974;49.460;10.892;2022-09-24T12:36:00;97454.56;;;14.94;75.81
73085;BME280;62974;49.460;10.892;2022-09-24T12:38:34;97448.22;;;14.89;76.65
73085;BME280;62974;49.460;10.892;2022-09-24T12:41:26;97451.28;;;15.04;76.47
73085;BME280;62974;49.460;10.892;2022-09-24T12:43:59;97448.06;;;15.19;75.95
73085;BME280;62974;49.460;10.892;2022-09-24T12:46:30;97453.63;;;15.12;74.54
73085;BME280;62974;49.460;10.892;2022-09-24T12:48:59;97451.38;;;15.09;74.98
73085;BME280;62974;49.460;10.892;2022-09-24T12:51:37;97450.78;;;15.07;74.77
73085;BME280;62974;49.460;10.892;2022-09-24T12:54:07;97443.16;;;15.04;75.16
73085;BME280;62974;49.460;10.892;2022-09-24T12:56:35;97442.81;;;15.00;76.46
73085;BME280;62974;49.460;10.892;2022-09-24T12:59:03;97445.59;;;15.05;75.90
73085;BME280;62974;49.460;10.892;2022-09-24T13:01:31;97449.75;;;15.08;74.88
73085;BME280;62974;49.460;10.892;2022-09-24T13:04:24;97442.34;;;14.92;75.47
73085;BME280;62974;49.460;10.892;2022-09-24T13:06:54;97445.28;;;14.90;75.96
73085;BME280;62974;49.460;10.892;2022-09-24T13:09:33;97442.44;;;14.97;75.78
73085;BME280;62974;49.460;10.892;2022-09-24T13:12:18;97435.63;;;14.94;75.49
73085;BME280;62974;49.460;10.892;2022-09-24T13:14:50;97434.13;;;14.75;76.37
73085;BME280;62974;49.460;10.892;2022-09-24T13:17:20;97430.84;;;14.85;76.12
73085;BME280;62974;49.460;10.892;2022-09-24T13:19:49;97435.50;;;15.01;75.59